sensor_id;sensor_type;location;lat;lon;timestamp;temperature;humidity
40964;DHT22;26693;51.168;4.138;2022-12-29T00:00:25;11.00;99.90
40964;DHT22;26693;51.168;4.138;2022-12-29T00:01:26;11.00;99.90
40964;DHT22;26693;51.168;4.138;2022-12-29T00:02:26;11.00;99.90
40964;DHT22;26693;51.168;4.138;2022-12-29T00:03:27;11.00;99.90
40964;DHT22;26693;51.168;4.138;2022-12-29T00:04:27;11.00;99.90
40964;DHT22;26693;51.168;4.138;2022-12-29T00:05:28;11.00;99.90
40964;DHT22;26693;51.168;4.138;2022-12-29T00:06:29;11.00;99.90
40964;DHT22;26693;51.168;4.138;2022-12-29T00:07:29;11.00;99.90
40964;DHT22;26693;51.168;4.138;2022-12-29T00:08:30;11.10;99.90
40964;DHT22;26693;51.168;4.138;2022-12-29T00:09:39;11.10;99.90
40964;DHT22;26693;51.168;4.138;2022-12-29T00:10:40;11.10;99.90
40964;DHT22;26693;51.168;4.138;2022-12-29T00:11:40;11.10;99.90
40964;DHT22;26693;51.168;4.138;2022-12-29T00:12:41;11.10;99.90
40964;DHT22;26693;51.168;4.138;2022-12-29T00:14:00;11.20;99.90
40964;DHT22;26693;51.168;4.138;2022-12-29T00:15:19;11.20;99.90
40964;DHT22;26693;51.168;4.138;2022-12-29T00:16:39;11.20;99.90
40964;DHT22;26693;51.168;4.138;2022-12-29T00:17:40;11.20;99.90
40964;DHT22;26693;51.168;4.138;2022-12-29T00:18:41;11.20;99.90
40964;DHT22;26693;51.168;4.138;2022-12-29T00:19:41;11.30;99.90
40964;DHT22;26693;51.168;4.138;2022-12-29T00:21:00;11.30;99.90
40964;DHT22;26693;51.168;4.138;2022-12-29T00:22:20;11.30;99.90
40964;DHT22;26693;51.168;4.138;2022-12-29T00:23:39;11.40;99.90
40964;DHT22;26693;51.168;4.138;2022-12-29T00:24:58;11.40;99.90
40964;DHT22;26693;51.168;4.138;2022-12-29T00:26:08;11.40;99.90
40964;DHT22;26693;51.168;4.138;2022-12-29T00:27:30;11.40;99.90
40964;DHT22;26693;51.168;4.138;2022-12-29T00:28:49;11.50;99.90
40964;DHT22;26693;51.168;4.138;2022-12-29T00:30:10;11.50;99.90
40964;DHT22;26693;51.168;4.138;2022-12-29T00:31:29;11.50;99.90
40964;DHT22;26693;51.168;4.138;2022-12-29T00:32:49;11.50;99.90
40964;DHT22;26693;51.168;4.138;2022-12-29T00:34:10;11.50;99.90
40964;DHT22;26693;51.168;4.138;2022-12-29T00:35:34;11.50;99.90
40964;DHT22;26693;51.168;4.138;2022-12-29T00:36:39;11.50;99.90
40964;DHT22;26693;51.168;4.138;2022-12-29T00:37:41;11.50;99.90
40964;DHT22;26693;51.168;4.138;2022-12-29T00:39:12;11.60;99.90
40964;DHT22;26693;51.168;4.138;2022-12-29T00:40:31;11.60;99.90
40964;DHT22;26693;51.168;4.138;2022-12-29T00:41:50;11.60;99.90
40964;DHT22;26693;51.168;4.138;2022-12-29T00:43:10;11.60;99.90
40964;DHT22;26693;51.168;4.138;2022-12-29T00:44:29;11.60;99.90
40964;DHT22;26693;51.168;4.138;2022-12-29T00:45:29;11.70;99.90
40964;DHT22;26693;51.168;4.138;2022-12-29T00:46:33;11.60;99.90
40964;DHT22;26693;51.168;4.138;2022-12-29T00:47:34;11.60;99.90
40964;DHT22;26693;51.168;4.138;2022-12-29T00:48:34;11.70;99.90
40964;DHT22;26693;51.168;4.138;2022-12-29T00:49:53;11.70;99.90
40964;DHT22;26693;51.168;4.138;2022-12-29T00:50:55;11.80;99.90
40964;DHT22;26693;51.168;4.138;2022-12-29T00:51:57;11.70;99.90
40964;DHT22;26693;51.168;4.138;2022-12-29T00:52:57;11.70;99.90
40964;DHT22;26693;51.168;4.138;2022-12-29T00:53:58;11.80;99.90
40964;DHT22;26693;51.168;4.138;2022-12-29T00:54:58;11.80;99.90
40964;DHT22;26693;51.168;4.138;2022-12-29T00:55:59;11.80;99.90
40964;DHT22;26693;51.168;4.138;2022-12-29T00:57:00;11.80;99.90
40964;DHT22;26693;51.168;4.138;2022-12-29T00:58:01;11.80;99.90
40964;DHT22;26693;51.168;4.138;2022-12-29T00:59:05;11.80;99.90
40964;DHT22;26693;51.168;4.138;2022-12-29T01:00:06;11.80;99.90
40964;DHT22;26693;51.168;4.138;2022-12-29T01:01:07;11.80;99.90
40964;DHT22;26693;51.168;4.138;2022-12-29T01:02:09;11.80;99.90
40964;DHT22;26693;51.168;4.138;2022-12-29T01:03:09;11.80;99.90
40964;DHT22;26693;51.168;4.138;2022-12-29T01:04:10;11.80;99.90
40964;DHT22;26693;51.168;4.138;2022-12-29T01:05:11;11.90;99.90
40964;DHT22;26693;51.168;4.138;2022-12-29T01:06:11;11.90;99.90
40964;DHT22;26693;51.168;4.138;2022-12-29T01:07:12;11.90;99.90
40964;DHT22;26693;51.168;4.138;2022-12-29T01:08:13;12.00;99.90
40964;DHT22;26693;51.168;4.138;2022-12-29T01:09:13;11.90;99.90
40964;DHT22;26693;51.168;4.138;2022-12-29T01:10:32;12.00;99.90
40964;DHT22;26693;51.168;4.138;2022-12-29T01:11:33;11.90;99.90
40964;DHT22;26693;51.168;4.138;2022-12-29T01:12:33;11.90;99.90
40964;DHT22;26693;51.168;4.138;2022-12-29T01:13:45;11.90;99.90
40964;DHT22;26693;51.168;4.138;2022-12-29T01:14:45;11.90;99.90
40964;DHT22;26693;51.168;4.138;2022-12-29T01:15:52;11.90;99.90
40964;DHT22;26693;51.168;4.138;2022-12-29T01:16:53;11.90;99.90
40964;DHT22;26693;51.168;4.138;2022-12-29T01:17:54;11.80;99.90
40964;DHT22;26693;51.168;4.138;2022-12-29T01:18:54;11.80;99.90
40964;DHT22;26693;51.168;4.138;2022-12-29T01:19:55;11.90;99.90
40964;DHT22;26693;51.168;4.138;2022-12-29T01:20:59;11.90;99.90
40964;DHT22;26693;51.168;4.138;2022-12-29T01:22:00;12.00;99.90
40964;DHT22;26693;51.168;4.138;2022-12-29T01:23:01;12.00;99.90
40964;DHT22;26693;51.168;4.138;2022-12-29T01:24:01;12.00;99.90
40964;DHT22;26693;51.168;4.138;2022-12-29T01:25:02;12.00;99.90
40964;DHT22;26693;51.168;4.138;2022-12-29T01:26:10;12.00;99.90
40964;DHT22;26693;51.168;4.138;2022-12-29T01:27:11;12.00;99.90
40964;DHT22;26693;51.168;4.138;2022-12-29T01:28:11;12.00;99.90
40964;DHT22;26693;51.168;4.138;2022-12-29T01:29:12;12.10;99.90
40964;DHT22;26693;51.168;4.138;2022-12-29T01:30:12;12.10;99.90
40964;DHT22;26693;51.168;4.138;2022-12-29T01:31:14;12.10;99.90
40964;DHT22;26693;51.168;4.138;2022-12-29T01:32:15;12.10;99.90
40964;DHT22;26693;51.168;4.138;2022-12-29T01:33:15;12.10;99.90
40964;DHT22;26693;51.168;4.138;2022-12-29T01:34:16;12.00;99.90
40964;DHT22;26693;51.168;4.138;2022-12-29T01:35:17;12.10;99.90
40964;DHT22;26693;51.168;4.138;2022-12-29T01:36:17;12.00;99.90
40964;DHT22;26693;51.168;4.138;2022-12-29T01:37:18;12.00;99.90
40964;DHT22;26693;51.168;4.138;2022-12-29T01:38:18;12.00;99.90
40964;DHT22;26693;51.168;4.138;2022-12-29T01:39:19;12.00;99.90
40964;DHT22;26693;51.168;4.138;2022-12-29T01:40:19;12.00;99.90
40964;DHT22;26693;51.168;4.138;2022-12-29T01:41:20;12.10;99.90
40964;DHT22;26693;51.168;4.138;2022-12-29T01:42:22;12.00;99.90
40964;DHT22;26693;51.168;4.138;2022-12-29T01:45:50;12.00;99.90
40964;DHT22;26693;51.168;4.138;2022-12-29T01:46:51;12.00;99.90
40964;DHT22;26693;51.168;4.138;2022-12-29T01:47:52;11.90;99.90
40964;DHT22;26693;51.168;4.138;2022-12-29T01:48:55;11.90;99.90
40964;DHT22;26693;51.168;4.138;2022-12-29T01:49:59;11.90;99.90
40964;DHT22;26693;51.168;4.138;2022-12-29T01:51:01;11.90;99.90
40964;DHT22;26693;51.168;4.138;2022-12-29T01:52:05;11.90;99.90
40964;DHT22;26693;51.168;4.138;2022-12-29T01:54:09;11.80;99.90
40964;DHT22;26693;51.168;4.138;2022-12-29T01:55:11;11.80;99.90
40964;DHT22;26693;51.168;4.138;2022-12-29T01:56:12;11.70;99.90
40964;DHT22;26693;51.168;4.138;2022-12-29T01:57:18;11.70;99.90
40964;DHT22;26693;51.168;4.138;2022-12-29T01:58:21;11.70;99.90
40964;DHT22;26693;51.168;4.138;2022-12-29T01:59:24;11.70;99.90
40964;DHT22;26693;51.168;4.138;2022-12-29T02:00:27;11.60;99.90
40964;DHT22;26693;51.168;4.138;2022-12-29T02:01:27;11.60;99.90
40964;DHT22;26693;51.168;4.138;2022-12-29T02:02:28;11.60;99.90
40964;DHT22;26693;51.168;4.138;2022-12-29T02:03:28;11.60;99.90
40964;DHT22;26693;51.168;4.138;2022-12-29T02:04:32;11.60;99.90
40964;DHT22;26693;51.168;4.138;2022-12-29T02:06:35;11.60;99.90
40964;DHT22;26693;51.168;4.138;2022-12-29T02:07:37;11.70;99.90
40964;DHT22;26693;51.168;4.138;2022-12-29T02:08:38;11.60;99.90
40964;DHT22;26693;51.168;4.138;2022-12-29T02:09:40;11.60;99.90
40964;DHT22;26693;51.168;4.138;2022-12-29T02:10:41;11.60;99.90
40964;DHT22;26693;51.168;4.138;2022-12-29T02:11:42;11.60;99.90
40964;DHT22;26693;51.168;4.138;2022-12-29T02:12:43;11.60;99.90
40964;DHT22;26693;51.168;4.138;2022-12-29T02:13:45;11.70;99.90
40964;DHT22;26693;51.168;4.138;2022-12-29T02:14:46;11.70;99.90
40964;DHT22;26693;51.168;4.138;2022-12-29T02:16:23;11.70;99.90
40964;DHT22;26693;51.168;4.138;2022-12-29T02:18:22;11.70;99.90
40964;DHT22;26693;51.168;4.138;2022-12-29T02:24:03;11.60;99.90
40964;DHT22;26693;51.168;4.138;2022-12-29T02:26:29;11.60;99.90
40964;DHT22;26693;51.168;4.138;2022-12-29T02:28:53;11.60;99.90
40964;DHT22;26693;51.168;4.138;2022-12-29T02:32:38;11.50;99.90
40964;DHT22;26693;51.168;4.138;2022-12-29T02:35:06;11.50;99.90
40964;DHT22;26693;51.168;4.138;2022-12-29T02:38:42;11.50;99.90
40964;DHT22;26693;51.168;4.138;2022-12-29T02:39:51;11.50;99.90
40964;DHT22;26693;51.168;4.138;2022-12-29T02:40:58;11.40;99.90
40964;DHT22;26693;51.168;4.138;2022-12-29T02:42:08;11.50;99.90
40964;DHT22;26693;51.168;4.138;2022-12-29T02:46:37;11.40;99.90
40964;DHT22;26693;51.168;4.138;2022-12-29T02:47:46;11.40;99.90
40964;DHT22;26693;51.168;4.138;2022-12-29T02:51:15;11.40;99.90
40964;DHT22;26693;51.168;4.138;2022-12-29T02:52:20;11.40;99.90
40964;DHT22;26693;51.168;4.138;2022-12-29T02:53:22;11.40;99.90
40964;DHT22;26693;51.168;4.138;2022-12-29T02:54:43;11.40;99.90
40964;DHT22;26693;51.168;4.138;2022-12-29T02:55:48;11.40;99.90
40964;DHT22;26693;51.168;4.138;2022-12-29T02:56:48;11.40;99.90
40964;DHT22;26693;51.168;4.138;2022-12-29T02:57:49;11.30;99.90
40964;DHT22;26693;51.168;4.138;2022-12-29T02:59:06;11.30;99.90
40964;DHT22;26693;51.168;4.138;2022-12-29T03:00:08;11.30;99.90
40964;DHT22;26693;51.168;4.138;2022-12-29T03:02:17;11.30;99.90
40964;DHT22;26693;51.168;4.138;2022-12-29T03:03:24;11.30;99.90
40964;DHT22;26693;51.168;4.138;2022-12-29T03:05:55;11.30;99.90
40964;DHT22;26693;51.168;4.138;2022-12-29T03:08:04;11.30;99.90
40964;DHT22;26693;51.168;4.138;2022-12-29T03:10:35;11.20;99.90
40964;DHT22;26693;51.168;4.138;2022-12-29T03:11:48;11.30;99.90
40964;DHT22;26693;51.168;4.138;2022-12-29T03:14:36;11.30;99.90
40964;DHT22;26693;51.168;4.138;2022-12-29T03:17:16;11.20;99.90
40964;DHT22;26693;51.168;4.138;2022-12-29T03:18:21;11.20;99.90
40964;DHT22;26693;51.168;4.138;2022-12-29T03:19:23;11.20;99.90
40964;DHT22;26693;51.168;4.138;2022-12-29T03:20:26;11.20;99.90
40964;DHT22;26693;51.168;4.138;2022-12-29T03:21:33;11.20;99.90
40964;DHT22;26693;51.168;4.138;2022-12-29T03:22:55;11.20;99.90
40964;DHT22;26693;51.168;4.138;2022-12-29T03:24:00;11.20;99.90
40964;DHT22;26693;51.168;4.138;2022-12-29T03:25:03;11.20;99.90
40964;DHT22;26693;51.168;4.138;2022-12-29T03:26:06;11.20;99.90
40964;DHT22;26693;51.168;4.138;2022-12-29T03:27:09;11.10;99.90
40964;DHT22;26693;51.168;4.138;2022-12-29T03:28:12;11.10;99.90
40964;DHT22;26693;51.168;4.138;2022-12-29T03:29:14;11.10;99.90
40964;DHT22;26693;51.168;4.138;2022-12-29T03:30:15;11.10;99.90
40964;DHT22;26693;51.168;4.138;2022-12-29T03:31:16;11.10;99.90
40964;DHT22;26693;51.168;4.138;2022-12-29T03:32:17;11.10;99.90
40964;DHT22;26693;51.168;4.138;2022-12-29T03:33:21;11.10;99.90
40964;DHT22;26693;51.168;4.138;2022-12-29T03:34:22;11.10;99.90
40964;DHT22;26693;51.168;4.138;2022-12-29T03:35:24;11.10;99.90
40964;DHT22;26693;51.168;4.138;2022-12-29T03:36:44;11.10;99.90
40964;DHT22;26693;51.168;4.138;2022-12-29T03:37:55;11.10;99.90
40964;DHT22;26693;51.168;4.138;2022-12-29T03:39:10;11.20;99.90
40964;DHT22;26693;51.168;4.138;2022-12-29T03:40:12;11.20;99.90
40964;DHT22;26693;51.168;4.138;2022-12-29T03:41:15;11.10;99.90
40964;DHT22;26693;51.168;4.138;2022-12-29T03:42:18;11.10;99.90
40964;DHT22;26693;51.168;4.138;2022-12-29T03:43:19;11.10;99.90
40964;DHT22;26693;51.168;4.138;2022-12-29T03:44:20;11.10;99.90
40964;DHT22;26693;51.168;4.138;2022-12-29T03:45:21;11.10;99.90
40964;DHT22;26693;51.168;4.138;2022-12-29T03:46:21;11.00;99.90
40964;DHT22;26693;51.168;4.138;2022-12-29T03:47:22;11.00;99.90
40964;DHT22;26693;51.168;4.138;2022-12-29T03:48:23;11.10;99.90
40964;DHT22;26693;51.168;4.138;2022-12-29T03:49:23;11.10;99.90
40964;DHT22;26693;51.168;4.138;2022-12-29T03:50:24;11.10;99.90
40964;DHT22;26693;51.168;4.138;2022-12-29T03:51:24;11.10;99.90
40964;DHT22;26693;51.168;4.138;2022-12-29T03:52:25;11.10;99.90
40964;DHT22;26693;51.168;4.138;2022-12-29T03:53:25;11.00;99.90
40964;DHT22;26693;51.168;4.138;2022-12-29T03:54:26;11.00;99.90
40964;DHT22;26693;51.168;4.138;2022-12-29T03:55:26;11.00;99.90
40964;DHT22;26693;51.168;4.138;2022-12-29T03:56:27;11.00;99.90
40964;DHT22;26693;51.168;4.138;2022-12-29T03:57:27;11.00;99.90
40964;DHT22;26693;51.168;4.138;2022-12-29T03:58:29;11.00;99.90
40964;DHT22;26693;51.168;4.138;2022-12-29T03:59:29;11.00;99.90
40964;DHT22;26693;51.168;4.138;2022-12-29T04:00:30;10.90;99.90
40964;DHT22;26693;51.168;4.138;2022-12-29T04:01:30;11.00;99.90
40964;DHT22;26693;51.168;4.138;2022-12-29T04:02:31;11.00;99.90
40964;DHT22;26693;51.168;4.138;2022-12-29T04:03:31;11.00;99.90
40964;DHT22;26693;51.168;4.138;2022-12-29T04:04:32;11.00;99.90
40964;DHT22;26693;51.168;4.138;2022-12-29T04:05:32;10.90;99.90
40964;DHT22;26693;51.168;4.138;2022-12-29T04:06:33;10.90;99.90
40964;DHT22;26693;51.168;4.138;2022-12-29T04:07:33;10.90;99.90
40964;DHT22;26693;51.168;4.138;2022-12-29T04:08:34;10.90;99.90
40964;DHT22;26693;51.168;4.138;2022-12-29T04:09:34;11.00;99.90
40964;DHT22;26693;51.168;4.138;2022-12-29T04:10:35;11.00;99.90
40964;DHT22;26693;51.168;4.138;2022-12-29T04:11:35;10.90;99.90
40964;DHT22;26693;51.168;4.138;2022-12-29T04:12:35;10.90;99.90
40964;DHT22;26693;51.168;4.138;2022-12-29T04:13:36;10.90;99.90
40964;DHT22;26693;51.168;4.138;2022-12-29T04:14:40;10.90;99.90
40964;DHT22;26693;51.168;4.138;2022-12-29T04:15:42;10.90;99.90
40964;DHT22;26693;51.168;4.138;2022-12-29T04:16:42;10.90;99.90
40964;DHT22;26693;51.168;4.138;2022-12-29T04:17:43;10.90;99.90
40964;DHT22;26693;51.168;4.138;2022-12-29T04:18:43;10.90;99.90
40964;DHT22;26693;51.168;4.138;2022-12-29T04:19:44;10.90;99.90
40964;DHT22;26693;51.168;4.138;2022-12-29T04:20:44;10.90;99.90
40964;DHT22;26693;51.168;4.138;2022-12-29T04:22:00;10.90;99.90
40964;DHT22;26693;51.168;4.138;2022-12-29T04:23:02;10.90;99.90
40964;DHT22;26693;51.168;4.138;2022-12-29T04:24:03;10.90;99.90
40964;DHT22;26693;51.168;4.138;2022-12-29T04:25:06;11.00;99.90
40964;DHT22;26693;51.168;4.138;2022-12-29T04:26:07;11.00;99.90
40964;DHT22;26693;51.168;4.138;2022-12-29T04:27:09;11.00;99.90
40964;DHT22;26693;51.168;4.138;2022-12-29T04:28:09;10.90;99.90
40964;DHT22;26693;51.168;4.138;2022-12-29T04:29:10;11.00;99.90
40964;DHT22;26693;51.168;4.138;2022-12-29T04:30:10;10.90;99.90
40964;DHT22;26693;51.168;4.138;2022-12-29T04:31:11;10.90;99.90
40964;DHT22;26693;51.168;4.138;2022-12-29T04:32:11;11.00;99.90
40964;DHT22;26693;51.168;4.138;2022-12-29T04:33:12;11.00;99.90
40964;DHT22;26693;51.168;4.138;2022-12-29T04:34:12;10.90;99.90
40964;DHT22;26693;51.168;4.138;2022-12-29T04:35:13;10.90;99.90
40964;DHT22;26693;51.168;4.138;2022-12-29T04:36:13;11.00;99.90
40964;DHT22;26693;51.168;4.138;2022-12-29T04:37:14;11.00;99.90
40964;DHT22;26693;51.168;4.138;2022-12-29T04:38:15;11.00;99.90
40964;DHT22;26693;51.168;4.138;2022-12-29T04:39:16;10.90;99.90
40964;DHT22;26693;51.168;4.138;2022-12-29T04:40:16;11.00;99.90
40964;DHT22;26693;51.168;4.138;2022-12-29T04:41:17;10.90;99.90
40964;DHT22;26693;51.168;4.138;2022-12-29T04:42:17;10.90;99.90
40964;DHT22;26693;51.168;4.138;2022-12-29T04:43:18;10.90;99.90
40964;DHT22;26693;51.168;4.138;2022-12-29T04:44:22;10.90;99.90
40964;DHT22;26693;51.168;4.138;2022-12-29T04:45:22;10.90;99.90
40964;DHT22;26693;51.168;4.138;2022-12-29T04:46:23;10.80;99.90
40964;DHT22;26693;51.168;4.138;2022-12-29T04:47:24;10.90;99.90
40964;DHT22;26693;51.168;4.138;2022-12-29T04:48:24;10.90;99.90
40964;DHT22;26693;51.168;4.138;2022-12-29T04:49:25;10.90;99.90
40964;DHT22;26693;51.168;4.138;2022-12-29T04:50:25;10.90;99.90
40964;DHT22;26693;51.168;4.138;2022-12-29T04:51:26;10.90;99.90
40964;DHT22;26693;51.168;4.138;2022-12-29T04:52:26;10.90;99.90
40964;DHT22;26693;51.168;4.138;2022-12-29T04:53:27;10.90;99.90
40964;DHT22;26693;51.168;4.138;2022-12-29T04:54:27;10.90;99.90
40964;DHT22;26693;51.168;4.138;2022-12-29T04:55:28;10.90;99.90
40964;DHT22;26693;51.168;4.138;2022-12-29T04:56:28;10.90;99.90
40964;DHT22;26693;51.168;4.138;2022-12-29T04:57:29;10.80;99.90
40964;DHT22;26693;51.168;4.138;2022-12-29T04:58:29;10.80;99.90
40964;DHT22;26693;51.168;4.138;2022-12-29T04:59:30;10.80;99.90
40964;DHT22;26693;51.168;4.138;2022-12-29T05:00:30;10.80;99.90
40964;DHT22;26693;51.168;4.138;2022-12-29T05:01:31;10.90;99.90
40964;DHT22;26693;51.168;4.138;2022-12-29T05:02:31;10.90;99.90
40964;DHT22;26693;51.168;4.138;2022-12-29T05:03:32;10.80;99.90
40964;DHT22;26693;51.168;4.138;2022-12-29T05:04:32;10.80;99.90
40964;DHT22;26693;51.168;4.138;2022-12-29T05:05:33;10.80;99.90
40964;DHT22;26693;51.168;4.138;2022-12-29T05:06:33;10.80;99.90
40964;DHT22;26693;51.168;4.138;2022-12-29T05:07:34;10.80;99.90
40964;DHT22;26693;51.168;4.138;2022-12-29T05:08:34;10.90;99.90
40964;DHT22;26693;51.168;4.138;2022-12-29T05:09:35;10.90;99.90
40964;DHT22;26693;51.168;4.138;2022-12-29T05:10:35;10.90;99.90
40964;DHT22;26693;51.168;4.138;2022-12-29T05:11:36;10.90;99.90
40964;DHT22;26693;51.168;4.138;2022-12-29T05:12:37;10.90;99.90
40964;DHT22;26693;51.168;4.138;2022-12-29T05:13:38;10.90;99.90
40964;DHT22;26693;51.168;4.138;2022-12-29T05:14:38;10.90;99.90
40964;DHT22;26693;51.168;4.138;2022-12-29T05:15:39;10.90;99.90
40964;DHT22;26693;51.168;4.138;2022-12-29T05:16:39;10.90;99.90
40964;DHT22;26693;51.168;4.138;2022-12-29T05:17:40;10.90;99.90
40964;DHT22;26693;51.168;4.138;2022-12-29T05:18:40;10.90;99.90
40964;DHT22;26693;51.168;4.138;2022-12-29T05:19:41;10.90;99.90
40964;DHT22;26693;51.168;4.138;2022-12-29T05:20:41;10.90;99.90
40964;DHT22;26693;51.168;4.138;2022-12-29T05:21:42;10.90;99.90
40964;DHT22;26693;51.168;4.138;2022-12-29T05:22:42;10.90;99.90
40964;DHT22;26693;51.168;4.138;2022-12-29T05:23:43;10.90;99.90
40964;DHT22;26693;51.168;4.138;2022-12-29T05:24:43;10.90;99.90
40964;DHT22;26693;51.168;4.138;2022-12-29T05:25:44;10.90;99.90
40964;DHT22;26693;51.168;4.138;2022-12-29T05:26:47;10.90;99.90
40964;DHT22;26693;51.168;4.138;2022-12-29T05:27:47;10.80;99.90
40964;DHT22;26693;51.168;4.138;2022-12-29T05:28:48;10.90;99.90
40964;DHT22;26693;51.168;4.138;2022-12-29T05:29:48;10.90;99.90
40964;DHT22;26693;51.168;4.138;2022-12-29T05:30:49;10.80;99.90
40964;DHT22;26693;51.168;4.138;2022-12-29T05:31:50;10.80;99.90
40964;DHT22;26693;51.168;4.138;2022-12-29T05:32:51;10.90;99.90
40964;DHT22;26693;51.168;4.138;2022-12-29T05:33:51;10.90;99.90
40964;DHT22;26693;51.168;4.138;2022-12-29T05:34:51;10.90;99.90
40964;DHT22;26693;51.168;4.138;2022-12-29T05:35:52;10.90;99.90
40964;DHT22;26693;51.168;4.138;2022-12-29T05:36:52;10.90;99.90
40964;DHT22;26693;51.168;4.138;2022-12-29T05:37:53;10.90;99.90
40964;DHT22;26693;51.168;4.138;2022-12-29T05:38:53;10.80;99.90
40964;DHT22;26693;51.168;4.138;2022-12-29T05:39:54;10.80;99.90
40964;DHT22;26693;51.168;4.138;2022-12-29T05:40:54;10.80;99.90
40964;DHT22;26693;51.168;4.138;2022-12-29T05:41:55;10.80;99.90
40964;DHT22;26693;51.168;4.138;2022-12-29T05:42:55;10.90;99.90
40964;DHT22;26693;51.168;4.138;2022-12-29T05:43:56;10.90;99.90
40964;DHT22;26693;51.168;4.138;2022-12-29T05:44:57;10.90;99.90
40964;DHT22;26693;51.168;4.138;2022-12-29T05:45:58;10.90;99.90
40964;DHT22;26693;51.168;4.138;2022-12-29T05:46:58;10.90;99.90
40964;DHT22;26693;51.168;4.138;2022-12-29T05:47:59;10.90;99.90
40964;DHT22;26693;51.168;4.138;2022-12-29T05:48:59;10.90;99.90
40964;DHT22;26693;51.168;4.138;2022-12-29T05:50:00;10.90;99.90
40964;DHT22;26693;51.168;4.138;2022-12-29T05:51:01;10.80;99.90
40964;DHT22;26693;51.168;4.138;2022-12-29T05:52:01;10.80;99.90
40964;DHT22;26693;51.168;4.138;2022-12-29T05:53:02;10.80;99.90
40964;DHT22;26693;51.168;4.138;2022-12-29T05:54:03;10.90;99.90
40964;DHT22;26693;51.168;4.138;2022-12-29T05:55:03;10.90;99.90
40964;DHT22;26693;51.168;4.138;2022-12-29T05:56:04;10.90;99.90
40964;DHT22;26693;51.168;4.138;2022-12-29T05:57:05;10.90;99.90
40964;DHT22;26693;51.168;4.138;2022-12-29T05:58:05;10.90;99.90
40964;DHT22;26693;51.168;4.138;2022-12-29T05:59:05;10.90;99.90
40964;DHT22;26693;51.168;4.138;2022-12-29T06:00:07;10.90;99.90
40964;DHT22;26693;51.168;4.138;2022-12-29T06:01:07;10.80;99.90
40964;DHT22;26693;51.168;4.138;2022-12-29T06:02:08;10.90;99.90
40964;DHT22;26693;51.168;4.138;2022-12-29T06:03:09;10.90;99.90
40964;DHT22;26693;51.168;4.138;2022-12-29T06:04:10;11.00;99.90
40964;DHT22;26693;51.168;4.138;2022-12-29T06:05:10;11.00;99.90
40964;DHT22;26693;51.168;4.138;2022-12-29T06:06:11;10.90;99.90
40964;DHT22;26693;51.168;4.138;2022-12-29T06:07:11;10.90;99.90
40964;DHT22;26693;51.168;4.138;2022-12-29T06:08:12;10.90;99.90
40964;DHT22;26693;51.168;4.138;2022-12-29T06:09:12;10.90;99.90
40964;DHT22;26693;51.168;4.138;2022-12-29T06:10:13;10.90;99.90
40964;DHT22;26693;51.168;4.138;2022-12-29T06:11:13;10.90;99.90
40964;DHT22;26693;51.168;4.138;2022-12-29T06:12:14;10.90;99.90
40964;DHT22;26693;51.168;4.138;2022-12-29T06:13:14;10.90;99.90
40964;DHT22;26693;51.168;4.138;2022-12-29T06:14:15;10.80;99.90
40964;DHT22;26693;51.168;4.138;2022-12-29T06:15:15;10.90;99.90
40964;DHT22;26693;51.168;4.138;2022-12-29T06:16:16;10.90;99.90
40964;DHT22;26693;51.168;4.138;2022-12-29T06:17:16;10.90;99.90
40964;DHT22;26693;51.168;4.138;2022-12-29T06:18:17;10.90;99.90
40964;DHT22;26693;51.168;4.138;2022-12-29T06:19:17;10.80;99.90
40964;DHT22;26693;51.168;4.138;2022-12-29T06:20:18;10.90;99.90
40964;DHT22;26693;51.168;4.138;2022-12-29T06:21:18;10.90;99.90
40964;DHT22;26693;51.168;4.138;2022-12-29T06:22:19;10.90;99.90
40964;DHT22;26693;51.168;4.138;2022-12-29T06:23:19;10.90;99.90
40964;DHT22;26693;51.168;4.138;2022-12-29T06:24:20;10.90;99.90
40964;DHT22;26693;51.168;4.138;2022-12-29T06:25:21;10.90;99.90
40964;DHT22;26693;51.168;4.138;2022-12-29T06:26:21;10.90;99.90
40964;DHT22;26693;51.168;4.138;2022-12-29T06:27:22;10.90;99.90
40964;DHT22;26693;51.168;4.138;2022-12-29T06:28:22;10.90;99.90
40964;DHT22;26693;51.168;4.138;2022-12-29T06:29:23;10.80;99.90
40964;DHT22;26693;51.168;4.138;2022-12-29T06:30:23;10.90;99.90
40964;DHT22;26693;51.168;4.138;2022-12-29T06:31:24;10.90;99.90
40964;DHT22;26693;51.168;4.138;2022-12-29T06:32:24;10.90;99.90
40964;DHT22;26693;51.168;4.138;2022-12-29T06:33:25;10.90;99.90
40964;DHT22;26693;51.168;4.138;2022-12-29T06:34:25;10.90;99.90
40964;DHT22;26693;51.168;4.138;2022-12-29T06:35:26;10.90;99.90
40964;DHT22;26693;51.168;4.138;2022-12-29T06:36:26;10.90;99.90
40964;DHT22;26693;51.168;4.138;2022-12-29T06:37:27;10.90;99.90
40964;DHT22;26693;51.168;4.138;2022-12-29T06:38:27;10.90;99.90
40964;DHT22;26693;51.168;4.138;2022-12-29T06:39:28;10.90;99.90
40964;DHT22;26693;51.168;4.138;2022-12-29T06:40:28;10.90;99.90
40964;DHT22;26693;51.168;4.138;2022-12-29T06:41:29;10.90;99.90
40964;DHT22;26693;51.168;4.138;2022-12-29T06:42:29;10.90;99.90
40964;DHT22;26693;51.168;4.138;2022-12-29T06:43:30;10.90;99.90
40964;DHT22;26693;51.168;4.138;2022-12-29T06:44:30;10.90;99.90
40964;DHT22;26693;51.168;4.138;2022-12-29T06:45:31;10.80;99.90
40964;DHT22;26693;51.168;4.138;2022-12-29T06:46:31;10.80;99.90
40964;DHT22;26693;51.168;4.138;2022-12-29T06:47:32;10.90;99.90
40964;DHT22;26693;51.168;4.138;2022-12-29T06:48:33;10.90;99.90
40964;DHT22;26693;51.168;4.138;2022-12-29T06:49:33;10.90;99.90
40964;DHT22;26693;51.168;4.138;2022-12-29T06:50:34;10.90;99.90
40964;DHT22;26693;51.168;4.138;2022-12-29T06:51:35;10.90;99.90
40964;DHT22;26693;51.168;4.138;2022-12-29T06:52:35;10.90;99.90
40964;DHT22;26693;51.168;4.138;2022-12-29T06:53:36;10.90;99.90
40964;DHT22;26693;51.168;4.138;2022-12-29T06:54:36;10.80;99.90
40964;DHT22;26693;51.168;4.138;2022-12-29T06:55:37;10.90;99.90
40964;DHT22;26693;51.168;4.138;2022-12-29T06:56:37;10.80;99.90
40964;DHT22;26693;51.168;4.138;2022-12-29T06:57:38;10.80;99.90
40964;DHT22;26693;51.168;4.138;2022-12-29T06:58:38;10.80;99.90
40964;DHT22;26693;51.168;4.138;2022-12-29T06:59:39;10.70;99.90
40964;DHT22;26693;51.168;4.138;2022-12-29T07:00:39;10.80;99.90
40964;DHT22;26693;51.168;4.138;2022-12-29T07:01:40;10.70;99.90
40964;DHT22;26693;51.168;4.138;2022-12-29T07:02:40;10.70;99.90
40964;DHT22;26693;51.168;4.138;2022-12-29T07:03:41;10.60;99.90
40964;DHT22;26693;51.168;4.138;2022-12-29T07:04:42;10.60;99.90
40964;DHT22;26693;51.168;4.138;2022-12-29T07:05:42;10.70;99.90
40964;DHT22;26693;51.168;4.138;2022-12-29T07:06:43;10.70;99.90
40964;DHT22;26693;51.168;4.138;2022-12-29T07:07:43;10.70;99.90
40964;DHT22;26693;51.168;4.138;2022-12-29T07:08:44;10.70;99.90
40964;DHT22;26693;51.168;4.138;2022-12-29T07:09:45;10.70;99.90